Terminal Aerodrome Forecast
Issued by NWS Albany, NY

Current Version | Previous Version | Text Only | Print | Product List | Glossary On
Versions: 1 2 3 4 5 6 7 8 9 10 11 12 13 14 15 16 17 18 19 20 21 22
351
FTUS41 KALY 251736
TAFPOU
TAF
KPOU 251736Z 2518/2618 18013G23KT P6SM BKN025
     FM252200 19015G25KT 2SM RA BR BKN015 OVC025
      TEMPO 2522/2524 VRB25G40KT 1SM +TSRA BR BKN009 OVC015CB
     FM260000 26012G20KT 2SM RA BR OVC009
     FM260200 29012G18KT P6SM VCSH OVC020
     FM260400 28012KT P6SM BKN040
     FM261300 28014G25KT P6SM BKN050=

USA.gov is the U.S. government's official web portal to all federal, state and local government web resources and services.